sensor_id;sensor_type;location;lat;lon;timestamp;pressure;altitude;pressure_sealevel;temperature;humidity
25510;BME280;13413;52.336;21.200;2023-07-31T00:00:03;99828.67;;;21.09;70.91
25510;BME280;13413;52.336;21.200;2023-07-31T00:02:56;99824.73;;;21.08;70.86
25510;BME280;13413;52.336;21.200;2023-07-31T00:05:50;99830.86;;;21.05;70.92
25510;BME280;13413;52.336;21.200;2023-07-31T00:08:44;99832.73;;;20.99;71.01
25510;BME280;13413;52.336;21.200;2023-07-31T00:11:38;99825.59;;;20.95;71.08
25510;BME280;13413;52.336;21.200;2023-07-31T00:14:32;99825.09;;;20.93;71.00
25510;BME280;13413;52.336;21.200;2023-07-31T00:17:26;99821.66;;;20.94;71.06
25510;BME280;13413;52.336;21.200;2023-07-31T00:20:20;99820.20;;;20.94;71.00
25510;BME280;13413;52.336;21.200;2023-07-31T00:23:15;99816.81;;;20.90;70.93
25510;BME280;13413;52.336;21.200;2023-07-31T00:26:08;99822.73;;;20.84;70.95
25510;BME280;13413;52.336;21.200;2023-07-31T00:29:02;99823.09;;;20.81;71.07
25510;BME280;13413;52.336;21.200;2023-07-31T00:31:58;99824.95;;;20.80;70.90
25510;BME280;13413;52.336;21.200;2023-07-31T00:34:53;99828.16;;;20.76;71.00
25510;BME280;13413;52.336;21.200;2023-07-31T00:37:47;99828.04;;;20.64;70.97
25510;BME280;13413;52.336;21.200;2023-07-31T00:40:39;99827.86;;;20.57;71.01
25510;BME280;13413;52.336;21.200;2023-07-31T00:46:16;99826.41;;;20.52;70.99
25510;BME280;13413;52.336;21.200;2023-07-31T00:49:10;99825.86;;;20.47;70.87
25510;BME280;13413;52.336;21.200;2023-07-31T00:52:05;99822.84;;;20.47;70.81
25510;BME280;13413;52.336;21.200;2023-07-31T00:54:59;99830.44;;;20.47;70.70
25510;BME280;13413;52.336;21.200;2023-07-31T00:57:54;99832.69;;;20.45;70.61
25510;BME280;13413;52.336;21.200;2023-07-31T01:00:49;99829.78;;;20.41;70.65
25510;BME280;13413;52.336;21.200;2023-07-31T01:03:43;99826.02;;;20.41;70.68
25510;BME280;13413;52.336;21.200;2023-07-31T01:06:40;99817.42;;;20.43;70.68
25510;BME280;13413;52.336;21.200;2023-07-31T01:09:42;99819.80;;;20.48;70.51
25510;BME280;13413;52.336;21.200;2023-07-31T01:12:39;99820.88;;;20.49;70.52
25510;BME280;13413;52.336;21.200;2023-07-31T01:15:33;99820.14;;;20.50;70.39
25510;BME280;13413;52.336;21.200;2023-07-31T01:18:27;99814.34;;;20.48;70.32
25510;BME280;13413;52.336;21.200;2023-07-31T01:21:45;99815.27;;;20.48;70.44
25510;BME280;13413;52.336;21.200;2023-07-31T01:24:57;99820.13;;;20.45;70.32
25510;BME280;13413;52.336;21.200;2023-07-31T01:28:01;99820.91;;;20.39;70.42
25510;BME280;13413;52.336;21.200;2023-07-31T01:31:00;99825.72;;;20.30;70.47
25510;BME280;13413;52.336;21.200;2023-07-31T01:34:00;99823.48;;;20.25;70.64
25510;BME280;13413;52.336;21.200;2023-07-31T01:36:54;99825.77;;;20.19;70.71
25510;BME280;13413;52.336;21.200;2023-07-31T01:39:49;99827.36;;;20.11;70.81
25510;BME280;13413;52.336;21.200;2023-07-31T01:42:43;99830.18;;;20.05;70.92
25510;BME280;13413;52.336;21.200;2023-07-31T01:45:37;99823.45;;;20.06;71.04
25510;BME280;13413;52.336;21.200;2023-07-31T01:48:31;99827.95;;;20.07;71.13
25510;BME280;13413;52.336;21.200;2023-07-31T01:51:25;99828.85;;;20.07;71.06
25510;BME280;13413;52.336;21.200;2023-07-31T01:54:19;99825.45;;;20.09;71.11
25510;BME280;13413;52.336;21.200;2023-07-31T01:57:13;99825.94;;;20.09;71.01
25510;BME280;13413;52.336;21.200;2023-07-31T02:00:09;99832.91;;;20.07;71.15
25510;BME280;13413;52.336;21.200;2023-07-31T02:03:03;99831.70;;;20.06;71.15
25510;BME280;13413;52.336;21.200;2023-07-31T02:05:57;99832.02;;;20.02;71.15
25510;BME280;13413;52.336;21.200;2023-07-31T02:08:51;99832.40;;;19.97;71.30
25510;BME280;13413;52.336;21.200;2023-07-31T02:11:45;99834.63;;;19.91;71.36
25510;BME280;13413;52.336;21.200;2023-07-31T02:14:39;99837.84;;;19.85;71.54
25510;BME280;13413;52.336;21.200;2023-07-31T02:17:33;99836.45;;;19.78;71.67
25510;BME280;13413;52.336;21.200;2023-07-31T02:20:27;99838.10;;;19.73;71.81
25510;BME280;13413;52.336;21.200;2023-07-31T02:23:21;99847.80;;;19.70;71.85
25510;BME280;13413;52.336;21.200;2023-07-31T02:26:15;99845.12;;;19.67;71.96
25510;BME280;13413;52.336;21.200;2023-07-31T02:29:09;99851.91;;;19.65;72.09
25510;BME280;13413;52.336;21.200;2023-07-31T02:32:04;99850.55;;;19.64;72.00
25510;BME280;13413;52.336;21.200;2023-07-31T02:34:58;99848.66;;;19.66;72.04
25510;BME280;13413;52.336;21.200;2023-07-31T02:40:47;99857.30;;;19.66;72.10
25510;BME280;13413;52.336;21.200;2023-07-31T02:43:41;99857.30;;;19.62;72.18
25510;BME280;13413;52.336;21.200;2023-07-31T02:46:35;99857.92;;;19.56;72.24
25510;BME280;13413;52.336;21.200;2023-07-31T02:49:29;99859.91;;;19.56;72.28
25510;BME280;13413;52.336;21.200;2023-07-31T02:52:23;99855.98;;;19.58;72.31
25510;BME280;13413;52.336;21.200;2023-07-31T02:55:17;99857.48;;;19.60;72.32
25510;BME280;13413;52.336;21.200;2023-07-31T02:58:09;99861.75;;;19.57;72.30
25510;BME280;13413;52.336;21.200;2023-07-31T03:10:09;99854.64;;;19.57;72.63
25510;BME280;13413;52.336;21.200;2023-07-31T03:13:03;99852.96;;;19.59;72.57
25510;BME280;13413;52.336;21.200;2023-07-31T03:15:57;99862.31;;;19.55;72.70
25510;BME280;13413;52.336;21.200;2023-07-31T03:18:51;99864.31;;;19.48;72.94
25510;BME280;13413;52.336;21.200;2023-07-31T03:21:46;99862.55;;;19.45;72.98
25510;BME280;13413;52.336;21.200;2023-07-31T03:24:39;99865.20;;;19.47;72.92
25510;BME280;13413;52.336;21.200;2023-07-31T03:27:33;99869.84;;;19.50;72.99
25510;BME280;13413;52.336;21.200;2023-07-31T03:30:27;99860.15;;;19.50;72.93
25510;BME280;13413;52.336;21.200;2023-07-31T03:33:21;99861.61;;;19.51;72.99
25510;BME280;13413;52.336;21.200;2023-07-31T03:36:15;99856.49;;;19.51;72.94
25510;BME280;13413;52.336;21.200;2023-07-31T03:39:09;99864.17;;;19.53;72.93
25510;BME280;13413;52.336;21.200;2023-07-31T03:42:06;99870.74;;;19.53;73.05
25510;BME280;13413;52.336;21.200;2023-07-31T03:45:00;99871.63;;;19.55;73.01
25510;BME280;13413;52.336;21.200;2023-07-31T03:47:54;99874.05;;;19.59;73.00
25510;BME280;13413;52.336;21.200;2023-07-31T03:50:48;99877.17;;;19.59;72.93
25510;BME280;13413;52.336;21.200;2023-07-31T03:53:42;99879.11;;;19.58;72.94
25510;BME280;13413;52.336;21.200;2023-07-31T03:56:36;99877.02;;;19.59;72.97
25510;BME280;13413;52.336;21.200;2023-07-31T03:59:31;99879.88;;;19.63;72.93
25510;BME280;13413;52.336;21.200;2023-07-31T04:02:24;99885.27;;;19.68;72.91
25510;BME280;13413;52.336;21.200;2023-07-31T04:05:19;99886.18;;;19.67;72.89
25510;BME280;13413;52.336;21.200;2023-07-31T04:08:13;99889.35;;;19.64;72.98
25510;BME280;13413;52.336;21.200;2023-07-31T04:11:06;99895.27;;;19.59;73.04
25510;BME280;13413;52.336;21.200;2023-07-31T04:14:00;99899.45;;;19.59;73.10
25510;BME280;13413;52.336;21.200;2023-07-31T04:16:54;99899.86;;;19.64;73.15
25510;BME280;13413;52.336;21.200;2023-07-31T04:19:49;99903.62;;;19.68;72.95
25510;BME280;13413;52.336;21.200;2023-07-31T04:22:42;99903.26;;;19.69;73.05
25510;BME280;13413;52.336;21.200;2023-07-31T04:25:37;99900.98;;;19.67;73.03
25510;BME280;13413;52.336;21.200;2023-07-31T04:28:30;99906.55;;;19.66;73.00
25510;BME280;13413;52.336;21.200;2023-07-31T04:31:24;99904.81;;;19.58;73.11
25510;BME280;13413;52.336;21.200;2023-07-31T04:34:18;99906.58;;;19.57;73.15
25510;BME280;13413;52.336;21.200;2023-07-31T04:37:12;99913.17;;;19.62;73.13
25510;BME280;13413;52.336;21.200;2023-07-31T04:40:09;99921.13;;;19.61;73.10
25510;BME280;13413;52.336;21.200;2023-07-31T04:43:04;99924.21;;;19.60;73.16
25510;BME280;13413;52.336;21.200;2023-07-31T04:45:58;99928.89;;;19.60;73.12
25510;BME280;13413;52.336;21.200;2023-07-31T04:48:51;99928.59;;;19.60;73.08
25510;BME280;13413;52.336;21.200;2023-07-31T04:51:45;99928.02;;;19.62;72.97
25510;BME280;13413;52.336;21.200;2023-07-31T04:54:39;99926.48;;;19.64;72.91
25510;BME280;13413;52.336;21.200;2023-07-31T04:57:34;99926.13;;;19.65;72.84
25510;BME280;13413;52.336;21.200;2023-07-31T05:00:27;99921.92;;;19.64;72.94
25510;BME280;13413;52.336;21.200;2023-07-31T05:03:21;99927.08;;;19.67;73.03
25510;BME280;13413;52.336;21.200;2023-07-31T05:06:15;99923.09;;;19.70;72.85
25510;BME280;13413;52.336;21.200;2023-07-31T05:09:10;99926.64;;;19.77;72.86
25510;BME280;13413;52.336;21.200;2023-07-31T05:12:06;99926.59;;;19.77;72.66
25510;BME280;13413;52.336;21.200;2023-07-31T05:15:00;99924.73;;;19.78;72.61
25510;BME280;13413;52.336;21.200;2023-07-31T05:17:55;99927.02;;;19.79;72.62
25510;BME280;13413;52.336;21.200;2023-07-31T05:20:48;99928.20;;;19.83;72.52
25510;BME280;13413;52.336;21.200;2023-07-31T05:29:16;99937.20;;;19.88;72.26
25510;BME280;13413;52.336;21.200;2023-07-31T05:32:10;99938.51;;;19.89;72.25
25510;BME280;13413;52.336;21.200;2023-07-31T05:35:06;99938.67;;;19.94;72.18
25510;BME280;13413;52.336;21.200;2023-07-31T05:38:00;99937.16;;;19.97;72.19
25510;BME280;13413;52.336;21.200;2023-07-31T05:40:54;99942.29;;;20.01;71.90
25510;BME280;13413;52.336;21.200;2023-07-31T05:43:48;99941.13;;;19.98;71.83
25510;BME280;13413;52.336;21.200;2023-07-31T05:46:41;99943.09;;;20.00;71.91
25510;BME280;13413;52.336;21.200;2023-07-31T05:49:36;99946.92;;;20.01;71.79
25510;BME280;13413;52.336;21.200;2023-07-31T05:52:33;99951.18;;;20.02;71.86
25510;BME280;13413;52.336;21.200;2023-07-31T05:58:23;99955.13;;;20.13;71.74
25510;BME280;13413;52.336;21.200;2023-07-31T06:01:18;99959.50;;;20.18;71.60
25510;BME280;13413;52.336;21.200;2023-07-31T06:04:12;99967.05;;;20.21;71.42
25510;BME280;13413;52.336;21.200;2023-07-31T06:07:06;99967.05;;;20.22;71.36
25510;BME280;13413;52.336;21.200;2023-07-31T06:10:00;99969.83;;;20.27;70.97
25510;BME280;13413;52.336;21.200;2023-07-31T06:12:54;99975.65;;;20.30;70.95
25510;BME280;13413;52.336;21.200;2023-07-31T06:15:48;99976.23;;;20.32;70.58
25510;BME280;13413;52.336;21.200;2023-07-31T06:18:42;99977.48;;;20.37;70.57
25510;BME280;13413;52.336;21.200;2023-07-31T06:21:35;99980.31;;;20.39;70.40
25510;BME280;13413;52.336;21.200;2023-07-31T06:24:30;99974.98;;;20.47;70.44
25510;BME280;13413;52.336;21.200;2023-07-31T06:27:25;99977.45;;;20.55;70.25
25510;BME280;13413;52.336;21.200;2023-07-31T06:30:19;99979.52;;;20.56;69.95
25510;BME280;13413;52.336;21.200;2023-07-31T06:33:13;99986.27;;;20.59;69.94
25510;BME280;13413;52.336;21.200;2023-07-31T06:36:07;99984.16;;;20.57;69.64
25510;BME280;13413;52.336;21.200;2023-07-31T06:39:01;99985.57;;;20.54;69.53
25510;BME280;13413;52.336;21.200;2023-07-31T06:41:54;99983.20;;;20.50;69.38
25510;BME280;13413;52.336;21.200;2023-07-31T06:44:49;99987.91;;;20.43;69.48
25510;BME280;13413;52.336;21.200;2023-07-31T06:47:42;99990.79;;;20.40;69.66
25510;BME280;13413;52.336;21.200;2023-07-31T06:50:37;99992.70;;;20.35;69.70
25510;BME280;13413;52.336;21.200;2023-07-31T06:53:31;99993.02;;;20.30;70.03
25510;BME280;13413;52.336;21.200;2023-07-31T06:56:26;99989.00;;;20.27;70.33
25510;BME280;13413;52.336;21.200;2023-07-31T06:59:20;99995.37;;;20.24;70.42
25510;BME280;13413;52.336;21.200;2023-07-31T07:02:14;99996.61;;;20.17;70.58
25510;BME280;13413;52.336;21.200;2023-07-31T07:05:08;100000.20;;;20.19;70.92
25510;BME280;13413;52.336;21.200;2023-07-31T07:08:03;99999.98;;;20.19;70.59
25510;BME280;13413;52.336;21.200;2023-07-31T07:10:57;99993.19;;;20.15;70.68
25510;BME280;13413;52.336;21.200;2023-07-31T07:13:51;99992.73;;;20.13;70.78
25510;BME280;13413;52.336;21.200;2023-07-31T07:16:44;99995.54;;;20.14;70.86
25510;BME280;13413;52.336;21.200;2023-07-31T07:19:41;100001.20;;;20.18;71.09
25510;BME280;13413;52.336;21.200;2023-07-31T07:22:35;100001.35;;;20.21;70.86
25510;BME280;13413;52.336;21.200;2023-07-31T07:25:29;100001.17;;;20.20;70.68
25510;BME280;13413;52.336;21.200;2023-07-31T07:28:23;99999.98;;;20.16;70.71
25510;BME280;13413;52.336;21.200;2023-07-31T07:31:17;100005.27;;;20.16;70.77
25510;BME280;13413;52.336;21.200;2023-07-31T07:34:11;100006.34;;;20.19;70.85
25510;BME280;13413;52.336;21.200;2023-07-31T07:37:05;100000.82;;;20.25;70.63
25510;BME280;13413;52.336;21.200;2023-07-31T07:39:58;100002.07;;;20.34;70.67
25510;BME280;13413;52.336;21.200;2023-07-31T07:51:27;99992.58;;;20.93;68.58
25510;BME280;13413;52.336;21.200;2023-07-31T07:54:20;99992.36;;;20.97;68.87
25510;BME280;13413;52.336;21.200;2023-07-31T07:57:14;99995.27;;;21.07;68.54
25510;BME280;13413;52.336;21.200;2023-07-31T08:00:10;100000.83;;;21.27;68.63
25510;BME280;13413;52.336;21.200;2023-07-31T08:03:05;100002.03;;;21.50;67.78
25510;BME280;13413;52.336;21.200;2023-07-31T08:05:59;99997.55;;;21.57;67.40
25510;BME280;13413;52.336;21.200;2023-07-31T08:08:52;99997.12;;;21.63;66.86
25510;BME280;13413;52.336;21.200;2023-07-31T08:11:46;99994.83;;;21.66;66.65
25510;BME280;13413;52.336;21.200;2023-07-31T08:14:40;99999.62;;;21.69;66.55
25510;BME280;13413;52.336;21.200;2023-07-31T08:17:34;99998.40;;;21.73;66.59
25510;BME280;13413;52.336;21.200;2023-07-31T08:20:29;99994.37;;;21.89;66.16
25510;BME280;13413;52.336;21.200;2023-07-31T08:23:23;99995.52;;;22.01;65.78
25510;BME280;13413;52.336;21.200;2023-07-31T08:26:20;99994.25;;;22.13;65.08
25510;BME280;13413;52.336;21.200;2023-07-31T08:29:13;99995.27;;;22.30;64.89
25510;BME280;13413;52.336;21.200;2023-07-31T08:32:08;99992.14;;;22.49;64.38
25510;BME280;13413;52.336;21.200;2023-07-31T08:35:03;99991.39;;;22.66;63.98
25510;BME280;13413;52.336;21.200;2023-07-31T08:37:59;99996.91;;;22.77;63.53
25510;BME280;13413;52.336;21.200;2023-07-31T08:40:54;99996.04;;;22.89;63.30
25510;BME280;13413;52.336;21.200;2023-07-31T08:43:49;99991.73;;;23.07;62.27
25510;BME280;13413;52.336;21.200;2023-07-31T08:46:43;99995.11;;;23.21;62.19
25510;BME280;13413;52.336;21.200;2023-07-31T08:49:38;99984.00;;;23.37;61.69
25510;BME280;13413;52.336;21.200;2023-07-31T08:52:33;99982.41;;;23.54;59.77
25510;BME280;13413;52.336;21.200;2023-07-31T08:55:27;99989.52;;;23.64;58.92
25510;BME280;13413;52.336;21.200;2023-07-31T08:58:20;99981.18;;;23.61;57.17
25510;BME280;13413;52.336;21.200;2023-07-31T09:01:15;99986.64;;;23.53;58.06
25510;BME280;13413;52.336;21.200;2023-07-31T09:04:11;99984.27;;;23.68;58.04
25510;BME280;13413;52.336;21.200;2023-07-31T09:07:07;99992.02;;;23.94;57.14
25510;BME280;13413;52.336;21.200;2023-07-31T09:10:00;99988.31;;;24.07;56.61
25510;BME280;13413;52.336;21.200;2023-07-31T09:12:54;99988.49;;;24.19;56.74
25510;BME280;13413;52.336;21.200;2023-07-31T09:15:48;99989.65;;;24.36;56.00
25510;BME280;13413;52.336;21.200;2023-07-31T09:18:56;99988.46;;;24.36;54.62
25510;BME280;13413;52.336;21.200;2023-07-31T09:21:50;99989.89;;;24.15;54.56
25510;BME280;13413;52.336;21.200;2023-07-31T09:24:45;99991.75;;;24.19;54.87
25510;BME280;13413;52.336;21.200;2023-07-31T09:27:49;99995.04;;;24.30;54.78
25510;BME280;13413;52.336;21.200;2023-07-31T09:30:49;99991.83;;;24.37;54.25
25510;BME280;13413;52.336;21.200;2023-07-31T09:33:55;99988.59;;;24.49;54.33
25510;BME280;13413;52.336;21.200;2023-07-31T09:36:50;99988.49;;;24.62;53.48
25510;BME280;13413;52.336;21.200;2023-07-31T09:39:50;99988.53;;;24.78;53.43
25510;BME280;13413;52.336;21.200;2023-07-31T09:42:44;99987.77;;;24.79;52.22
25510;BME280;13413;52.336;21.200;2023-07-31T09:45:39;99987.25;;;24.72;51.64
25510;BME280;13413;52.336;21.200;2023-07-31T09:48:40;99987.07;;;24.79;52.17
25510;BME280;13413;52.336;21.200;2023-07-31T09:51:34;99991.70;;;25.04;51.72
25510;BME280;13413;52.336;21.200;2023-07-31T09:54:27;99992.29;;;25.17;50.91
25510;BME280;13413;52.336;21.200;2023-07-31T09:57:22;99990.61;;;25.15;51.18
25510;BME280;13413;52.336;21.200;2023-07-31T10:00:18;99986.27;;;25.32;50.40
25510;BME280;13413;52.336;21.200;2023-07-31T10:11:55;99982.17;;;25.21;50.24
25510;BME280;13413;52.336;21.200;2023-07-31T10:14:52;99987.30;;;25.24;50.11
25510;BME280;13413;52.336;21.200;2023-07-31T10:17:47;99985.27;;;25.30;50.18
25510;BME280;13413;52.336;21.200;2023-07-31T10:20:42;99987.60;;;25.64;49.74
25510;BME280;13413;52.336;21.200;2023-07-31T10:23:35;99988.09;;;25.85;49.24
25510;BME280;13413;52.336;21.200;2023-07-31T10:26:31;99989.80;;;26.00;47.20
25510;BME280;13413;52.336;21.200;2023-07-31T10:29:25;99985.78;;;26.05;45.55
25510;BME280;13413;52.336;21.200;2023-07-31T10:32:21;99987.06;;;26.32;46.15
25510;BME280;13413;52.336;21.200;2023-07-31T10:35:13;99991.06;;;26.59;45.64
25510;BME280;13413;52.336;21.200;2023-07-31T10:38:14;99991.92;;;26.69;44.93
25510;BME280;13413;52.336;21.200;2023-07-31T10:41:10;99989.29;;;26.67;44.55
25510;BME280;13413;52.336;21.200;2023-07-31T10:44:05;99987.98;;;26.70;44.56
25510;BME280;13413;52.336;21.200;2023-07-31T10:47:01;99990.91;;;26.63;43.60
25510;BME280;13413;52.336;21.200;2023-07-31T10:50:12;99985.20;;;26.82;43.69
25510;BME280;13413;52.336;21.200;2023-07-31T10:53:06;99989.04;;;26.82;42.26
25510;BME280;13413;52.336;21.200;2023-07-31T10:56:01;99993.20;;;26.58;42.19
25510;BME280;13413;52.336;21.200;2023-07-31T10:59:03;99996.05;;;26.31;42.49
25510;BME280;13413;52.336;21.200;2023-07-31T11:01:57;99992.60;;;26.26;42.52
25510;BME280;13413;52.336;21.200;2023-07-31T11:05:07;99991.07;;;26.15;42.06
25510;BME280;13413;52.336;21.200;2023-07-31T11:08:01;99987.22;;;26.08;42.57
25510;BME280;13413;52.336;21.200;2023-07-31T11:11:10;99988.60;;;26.31;42.50
25510;BME280;13413;52.336;21.200;2023-07-31T11:14:11;99989.89;;;26.42;40.96
25510;BME280;13413;52.336;21.200;2023-07-31T11:17:12;99985.52;;;26.34;41.50
25510;BME280;13413;52.336;21.200;2023-07-31T11:20:08;99988.11;;;26.30;41.29
25510;BME280;13413;52.336;21.200;2023-07-31T11:23:04;99987.77;;;25.97;40.95
25510;BME280;13413;52.336;21.200;2023-07-31T11:26:01;99986.86;;;25.82;41.43
25510;BME280;13413;52.336;21.200;2023-07-31T11:28:55;99984.88;;;25.97;42.43
25510;BME280;13413;52.336;21.200;2023-07-31T11:31:49;99987.58;;;26.15;42.02
25510;BME280;13413;52.336;21.200;2023-07-31T11:34:54;99983.79;;;26.15;41.81
25510;BME280;13413;52.336;21.200;2023-07-31T11:37:48;99980.98;;;26.19;41.93
25510;BME280;13413;52.336;21.200;2023-07-31T11:40:45;99983.33;;;26.25;41.70
25510;BME280;13413;52.336;21.200;2023-07-31T11:43:39;99979.06;;;26.14;41.32
25510;BME280;13413;52.336;21.200;2023-07-31T11:46:33;99981.02;;;26.14;41.86
25510;BME280;13413;52.336;21.200;2023-07-31T11:49:27;99979.73;;;26.20;40.71
25510;BME280;13413;52.336;21.200;2023-07-31T11:52:21;99976.27;;;26.11;41.38
25510;BME280;13413;52.336;21.200;2023-07-31T11:55:15;99971.89;;;26.08;41.86
25510;BME280;13413;52.336;21.200;2023-07-31T11:58:10;99970.88;;;26.16;41.94
25510;BME280;13413;52.336;21.200;2023-07-31T12:01:05;99967.63;;;26.15;41.22
25510;BME280;13413;52.336;21.200;2023-07-31T12:04:00;99971.16;;;26.15;41.60
25510;BME280;13413;52.336;21.200;2023-07-31T12:06:55;99968.08;;;26.13;41.49
25510;BME280;13413;52.336;21.200;2023-07-31T12:09:56;99961.77;;;26.27;41.26
25510;BME280;13413;52.336;21.200;2023-07-31T12:13:03;99961.33;;;26.28;41.32
25510;BME280;13413;52.336;21.200;2023-07-31T12:15:58;99960.19;;;26.15;40.15
25510;BME280;13413;52.336;21.200;2023-07-31T12:18:52;99952.52;;;26.08;40.85
25510;BME280;13413;52.336;21.200;2023-07-31T12:21:46;99957.80;;;26.03;41.05
25510;BME280;13413;52.336;21.200;2023-07-31T12:27:34;99945.69;;;25.90;40.45
25510;BME280;13413;52.336;21.200;2023-07-31T12:30:34;99943.86;;;25.76;40.96
25510;BME280;13413;52.336;21.200;2023-07-31T12:33:32;99943.91;;;25.76;41.22
25510;BME280;13413;52.336;21.200;2023-07-31T12:36:26;99943.55;;;25.75;41.48
25510;BME280;13413;52.336;21.200;2023-07-31T12:39:21;99945.40;;;25.81;41.49
25510;BME280;13413;52.336;21.200;2023-07-31T12:42:16;99942.23;;;25.76;41.77
25510;BME280;13413;52.336;21.200;2023-07-31T12:45:11;99938.48;;;25.77;41.97
25510;BME280;13413;52.336;21.200;2023-07-31T12:48:05;99933.59;;;25.82;41.98
25510;BME280;13413;52.336;21.200;2023-07-31T12:50:59;99931.51;;;25.77;41.99
25510;BME280;13413;52.336;21.200;2023-07-31T12:53:53;99928.34;;;25.73;42.35
25510;BME280;13413;52.336;21.200;2023-07-31T12:56:47;99927.23;;;25.69;42.07
25510;BME280;13413;52.336;21.200;2023-07-31T12:59:41;99923.80;;;25.60;42.05
25510;BME280;13413;52.336;21.200;2023-07-31T13:02:35;99917.45;;;25.48;42.21
25510;BME280;13413;52.336;21.200;2023-07-31T13:05:30;99916.00;;;25.39;42.38
25510;BME280;13413;52.336;21.200;2023-07-31T13:08:23;99915.57;;;25.31;42.58
25510;BME280;13413;52.336;21.200;2023-07-31T13:11:17;99909.41;;;25.35;42.71
25510;BME280;13413;52.336;21.200;2023-07-31T13:14:11;99905.27;;;25.53;43.19
25510;BME280;13413;52.336;21.200;2023-07-31T13:17:05;99901.86;;;25.70;43.22
25510;BME280;13413;52.336;21.200;2023-07-31T13:19:59;99899.92;;;25.85;43.04
25510;BME280;13413;52.336;21.200;2023-07-31T13:22:53;99894.39;;;26.00;42.98
25510;BME280;13413;52.336;21.200;2023-07-31T13:25:49;99890.39;;;25.97;42.51
25510;BME280;13413;52.336;21.200;2023-07-31T13:28:43;99898.39;;;25.91;42.69
25510;BME280;13413;52.336;21.200;2023-07-31T13:31:37;99892.35;;;25.87;42.18
25510;BME280;13413;52.336;21.200;2023-07-31T13:34:31;99888.27;;;25.81;42.01
25510;BME280;13413;52.336;21.200;2023-07-31T13:37:25;99883.63;;;25.79;41.74
25510;BME280;13413;52.336;21.200;2023-07-31T13:40:19;99886.27;;;25.85;41.79
25510;BME280;13413;52.336;21.200;2023-07-31T13:43:13;99880.49;;;25.93;41.57
25510;BME280;13413;52.336;21.200;2023-07-31T13:46:07;99885.06;;;25.93;40.79
25510;BME280;13413;52.336;21.200;2023-07-31T13:49:01;99883.41;;;25.95;40.98
25510;BME280;13413;52.336;21.200;2023-07-31T13:51:55;99881.16;;;25.92;40.80
25510;BME280;13413;52.336;21.200;2023-07-31T13:54:49;99879.53;;;25.69;40.25
25510;BME280;13413;52.336;21.200;2023-07-31T13:57:43;99875.85;;;25.47;40.24
25510;BME280;13413;52.336;21.200;2023-07-31T14:00:37;99876.63;;;25.46;40.77
25510;BME280;13413;52.336;21.200;2023-07-31T14:03:31;99876.23;;;25.62;40.62
25510;BME280;13413;52.336;21.200;2023-07-31T14:06:25;99876.34;;;25.73;40.24
25510;BME280;13413;52.336;21.200;2023-07-31T14:09:19;99876.00;;;25.91;40.64
25510;BME280;13413;52.336;21.200;2023-07-31T14:12:13;99871.52;;;25.98;40.03
25510;BME280;13413;52.336;21.200;2023-07-31T14:15:08;99876.60;;;25.90;40.05
25510;BME280;13413;52.336;21.200;2023-07-31T14:18:02;99879.18;;;25.78;39.67
25510;BME280;13413;52.336;21.200;2023-07-31T14:20:57;99875.82;;;25.60;39.84
25510;BME280;13413;52.336;21.200;2023-07-31T14:23:49;99875.96;;;25.61;40.15
25510;BME280;13413;52.336;21.200;2023-07-31T14:26:43;99871.23;;;25.61;40.14
25510;BME280;13413;52.336;21.200;2023-07-31T14:29:37;99870.85;;;25.57;40.09
25510;BME280;13413;52.336;21.200;2023-07-31T14:35:25;99868.31;;;25.39;40.42
25510;BME280;13413;52.336;21.200;2023-07-31T14:38:19;99862.56;;;25.33;40.53
25510;BME280;13413;52.336;21.200;2023-07-31T14:46:46;99855.47;;;25.17;40.30
25510;BME280;13413;52.336;21.200;2023-07-31T14:49:40;99851.63;;;25.15;40.75
25510;BME280;13413;52.336;21.200;2023-07-31T14:52:34;99851.14;;;25.21;40.87
25510;BME280;13413;52.336;21.200;2023-07-31T14:55:28;99851.10;;;25.27;40.79
25510;BME280;13413;52.336;21.200;2023-07-31T14:58:22;99852.27;;;25.30;41.20
25510;BME280;13413;52.336;21.200;2023-07-31T15:01:17;99847.00;;;25.37;41.05
25510;BME280;13413;52.336;21.200;2023-07-31T15:04:10;99845.59;;;25.35;40.96
25510;BME280;13413;52.336;21.200;2023-07-31T15:07:17;99842.20;;;25.37;41.13
25510;BME280;13413;52.336;21.200;2023-07-31T15:10:11;99840.06;;;25.41;41.24
25510;BME280;13413;52.336;21.200;2023-07-31T15:13:08;99838.48;;;25.42;41.06
25510;BME280;13413;52.336;21.200;2023-07-31T15:16:01;99838.16;;;25.41;41.40
25510;BME280;13413;52.336;21.200;2023-07-31T15:18:55;99840.29;;;25.40;41.36
25510;BME280;13413;52.336;21.200;2023-07-31T15:21:49;99836.29;;;25.31;41.49
25510;BME280;13413;52.336;21.200;2023-07-31T15:24:43;99834.29;;;25.30;41.97
25510;BME280;13413;52.336;21.200;2023-07-31T15:27:37;99833.23;;;25.34;41.86
25510;BME280;13413;52.336;21.200;2023-07-31T15:30:32;99827.48;;;25.32;41.78
25510;BME280;13413;52.336;21.200;2023-07-31T15:33:25;99823.16;;;25.30;41.97
25510;BME280;13413;52.336;21.200;2023-07-31T15:36:19;99822.30;;;25.22;41.99
25510;BME280;13413;52.336;21.200;2023-07-31T15:39:13;99822.44;;;25.18;42.11
25510;BME280;13413;52.336;21.200;2023-07-31T15:42:08;99820.85;;;25.14;42.33
25510;BME280;13413;52.336;21.200;2023-07-31T15:45:02;99818.12;;;25.09;42.20
25510;BME280;13413;52.336;21.200;2023-07-31T15:47:55;99818.79;;;25.07;42.46
25510;BME280;13413;52.336;21.200;2023-07-31T15:50:50;99815.62;;;25.05;42.49
25510;BME280;13413;52.336;21.200;2023-07-31T15:53:43;99815.73;;;25.03;42.53
25510;BME280;13413;52.336;21.200;2023-07-31T15:56:38;99814.05;;;24.95;42.49
25510;BME280;13413;52.336;21.200;2023-07-31T15:59:31;99814.46;;;24.93;42.60
25510;BME280;13413;52.336;21.200;2023-07-31T16:02:25;99812.60;;;24.95;42.73
25510;BME280;13413;52.336;21.200;2023-07-31T16:05:19;99813.69;;;25.01;42.92